sensor_id;sensor_type;location;lat;lon;timestamp;temperature;humidity
43999;DHT22;51319;52.162;5.302;2022-09-09T00:00:38;15.90;93.30
43999;DHT22;51319;52.162;5.302;2022-09-09T00:03:37;15.90;93.20
43999;DHT22;51319;52.162;5.302;2022-09-09T00:06:20;15.90;93.20
43999;DHT22;51319;52.162;5.302;2022-09-09T00:08:57;15.90;93.10
43999;DHT22;51319;52.162;5.302;2022-09-09T00:11:42;15.90;93.10
43999;DHT22;51319;52.162;5.302;2022-09-09T00:14:26;15.90;93.10
43999;DHT22;51319;52.162;5.302;2022-09-09T00:17:02;15.80;93.10
43999;DHT22;51319;52.162;5.302;2022-09-09T00:19:41;15.80;93.10
43999;DHT22;51319;52.162;5.302;2022-09-09T00:22:23;15.80;93.00
43999;DHT22;51319;52.162;5.302;2022-09-09T00:25:09;15.80;93.40
43999;DHT22;51319;52.162;5.302;2022-09-09T00:27:48;15.70;93.10
43999;DHT22;51319;52.162;5.302;2022-09-09T00:30:19;15.70;93.10
43999;DHT22;51319;52.162;5.302;2022-09-09T00:32:50;15.70;93.20
43999;DHT22;51319;52.162;5.302;2022-09-09T00:35:26;15.60;93.20
43999;DHT22;51319;52.162;5.302;2022-09-09T00:37:56;15.60;93.40
43999;DHT22;51319;52.162;5.302;2022-09-09T00:40:34;15.50;93.20
43999;DHT22;51319;52.162;5.302;2022-09-09T00:43:16;15.50;93.40
43999;DHT22;51319;52.162;5.302;2022-09-09T00:51:15;15.30;93.60
43999;DHT22;51319;52.162;5.302;2022-09-09T00:57:14;15.20;93.70
43999;DHT22;51319;52.162;5.302;2022-09-09T00:59:51;15.20;93.70
43999;DHT22;51319;52.162;5.302;2022-09-09T01:05:53;15.10;93.80
43999;DHT22;51319;52.162;5.302;2022-09-09T01:08:01;15.10;93.90
43999;DHT22;51319;52.162;5.302;2022-09-09T01:10:50;15.10;93.80
43999;DHT22;51319;52.162;5.302;2022-09-09T01:13:25;15.00;94.10
43999;DHT22;51319;52.162;5.302;2022-09-09T01:15:53;15.00;93.90
43999;DHT22;51319;52.162;5.302;2022-09-09T01:18:27;14.90;94.00
43999;DHT22;51319;52.162;5.302;2022-09-09T01:21:25;14.90;94.20
43999;DHT22;51319;52.162;5.302;2022-09-09T01:24:15;14.90;94.30
43999;DHT22;51319;52.162;5.302;2022-09-09T01:26:44;14.90;94.30
43999;DHT22;51319;52.162;5.302;2022-09-09T01:29:18;14.80;94.30
43999;DHT22;51319;52.162;5.302;2022-09-09T01:31:56;14.80;94.40
43999;DHT22;51319;52.162;5.302;2022-09-09T01:34:31;14.80;94.50
43999;DHT22;51319;52.162;5.302;2022-09-09T01:37:03;14.80;94.60
43999;DHT22;51319;52.162;5.302;2022-09-09T01:39:31;14.70;94.60
43999;DHT22;51319;52.162;5.302;2022-09-09T01:41:58;14.80;94.80
43999;DHT22;51319;52.162;5.302;2022-09-09T01:44:26;14.70;94.80
43999;DHT22;51319;52.162;5.302;2022-09-09T01:46:53;14.70;94.80
43999;DHT22;51319;52.162;5.302;2022-09-09T01:49:19;14.70;95.00
43999;DHT22;51319;52.162;5.302;2022-09-09T01:51:49;14.60;94.80
43999;DHT22;51319;52.162;5.302;2022-09-09T01:54:15;14.60;94.90
43999;DHT22;51319;52.162;5.302;2022-09-09T01:57:06;14.60;94.90
43999;DHT22;51319;52.162;5.302;2022-09-09T02:00:04;14.60;95.10
43999;DHT22;51319;52.162;5.302;2022-09-09T02:05:41;14.60;95.00
43999;DHT22;51319;52.162;5.302;2022-09-09T02:08:14;14.50;95.00
43999;DHT22;51319;52.162;5.302;2022-09-09T02:10:48;14.50;95.00
43999;DHT22;51319;52.162;5.302;2022-09-09T02:13:18;14.50;95.00
43999;DHT22;51319;52.162;5.302;2022-09-09T02:21:14;14.40;95.10
43999;DHT22;51319;52.162;5.302;2022-09-09T02:23:47;14.40;95.10
43999;DHT22;51319;52.162;5.302;2022-09-09T02:26:14;14.40;95.40
43999;DHT22;51319;52.162;5.302;2022-09-09T02:28:48;14.40;95.20
43999;DHT22;51319;52.162;5.302;2022-09-09T02:31:18;14.40;95.30
43999;DHT22;51319;52.162;5.302;2022-09-09T02:33:50;14.50;95.40
43999;DHT22;51319;52.162;5.302;2022-09-09T02:36:19;14.50;95.40
43999;DHT22;51319;52.162;5.302;2022-09-09T02:38:47;14.50;95.40
43999;DHT22;51319;52.162;5.302;2022-09-09T02:41:20;14.50;95.30
43999;DHT22;51319;52.162;5.302;2022-09-09T02:43:49;14.50;95.30
43999;DHT22;51319;52.162;5.302;2022-09-09T02:49:19;14.40;95.30
43999;DHT22;51319;52.162;5.302;2022-09-09T02:52:06;14.40;95.20
43999;DHT22;51319;52.162;5.302;2022-09-09T02:54:35;14.30;95.20
43999;DHT22;51319;52.162;5.302;2022-09-09T02:57:23;14.30;95.20
43999;DHT22;51319;52.162;5.302;2022-09-09T02:59:51;14.30;95.30
43999;DHT22;51319;52.162;5.302;2022-09-09T03:02:18;14.30;95.40
43999;DHT22;51319;52.162;5.302;2022-09-09T03:04:44;14.30;95.30
43999;DHT22;51319;52.162;5.302;2022-09-09T03:07:20;14.30;95.30
43999;DHT22;51319;52.162;5.302;2022-09-09T03:09:46;14.30;95.30
43999;DHT22;51319;52.162;5.302;2022-09-09T03:12:13;14.30;95.40
43999;DHT22;51319;52.162;5.302;2022-09-09T03:14:39;14.30;95.40
43999;DHT22;51319;52.162;5.302;2022-09-09T03:17:06;14.30;95.50
43999;DHT22;51319;52.162;5.302;2022-09-09T03:19:32;14.30;95.50
43999;DHT22;51319;52.162;5.302;2022-09-09T03:22:01;14.30;95.60
43999;DHT22;51319;52.162;5.302;2022-09-09T03:24:27;14.20;95.50
43999;DHT22;51319;52.162;5.302;2022-09-09T03:26:53;14.20;95.60
43999;DHT22;51319;52.162;5.302;2022-09-09T03:29:21;14.20;95.50
43999;DHT22;51319;52.162;5.302;2022-09-09T03:31:47;14.20;95.50
43999;DHT22;51319;52.162;5.302;2022-09-09T03:34:14;14.20;95.50
43999;DHT22;51319;52.162;5.302;2022-09-09T03:36:40;14.10;95.40
43999;DHT22;51319;52.162;5.302;2022-09-09T03:39:07;14.00;95.40
43999;DHT22;51319;52.162;5.302;2022-09-09T03:41:33;14.10;95.40
43999;DHT22;51319;52.162;5.302;2022-09-09T03:44:00;14.00;95.50
43999;DHT22;51319;52.162;5.302;2022-09-09T03:46:26;14.00;95.50
43999;DHT22;51319;52.162;5.302;2022-09-09T03:48:52;14.00;95.70
43999;DHT22;51319;52.162;5.302;2022-09-09T03:51:19;14.00;95.80
43999;DHT22;51319;52.162;5.302;2022-09-09T03:53:45;14.00;95.70
43999;DHT22;51319;52.162;5.302;2022-09-09T03:56:12;14.00;95.70
43999;DHT22;51319;52.162;5.302;2022-09-09T03:58:39;14.00;95.80
43999;DHT22;51319;52.162;5.302;2022-09-09T04:01:13;14.00;95.70
43999;DHT22;51319;52.162;5.302;2022-09-09T04:03:40;13.90;95.80
43999;DHT22;51319;52.162;5.302;2022-09-09T04:06:08;13.90;95.80
43999;DHT22;51319;52.162;5.302;2022-09-09T04:08:35;13.90;95.90
43999;DHT22;51319;52.162;5.302;2022-09-09T04:11:03;13.90;95.90
43999;DHT22;51319;52.162;5.302;2022-09-09T04:13:33;13.90;96.00
43999;DHT22;51319;52.162;5.302;2022-09-09T04:16:01;13.90;96.00
43999;DHT22;51319;52.162;5.302;2022-09-09T04:18:28;13.90;96.00
43999;DHT22;51319;52.162;5.302;2022-09-09T04:20:54;13.90;96.00
43999;DHT22;51319;52.162;5.302;2022-09-09T04:23:24;13.90;96.00
43999;DHT22;51319;52.162;5.302;2022-09-09T04:25:52;13.90;96.00
43999;DHT22;51319;52.162;5.302;2022-09-09T04:28:21;13.90;96.10
43999;DHT22;51319;52.162;5.302;2022-09-09T04:30:48;13.90;96.10
43999;DHT22;51319;52.162;5.302;2022-09-09T04:33:14;13.90;96.30
43999;DHT22;51319;52.162;5.302;2022-09-09T04:35:45;14.00;96.40
43999;DHT22;51319;52.162;5.302;2022-09-09T04:38:12;14.10;96.40
43999;DHT22;51319;52.162;5.302;2022-09-09T04:40:41;14.20;96.30
43999;DHT22;51319;52.162;5.302;2022-09-09T04:43:09;14.20;96.20
43999;DHT22;51319;52.162;5.302;2022-09-09T04:45:40;14.20;96.00
43999;DHT22;51319;52.162;5.302;2022-09-09T04:48:07;14.10;95.90
43999;DHT22;51319;52.162;5.302;2022-09-09T04:50:34;14.10;95.80
43999;DHT22;51319;52.162;5.302;2022-09-09T04:53:01;14.00;95.60
43999;DHT22;51319;52.162;5.302;2022-09-09T04:55:27;14.00;95.70
43999;DHT22;51319;52.162;5.302;2022-09-09T04:57:53;13.90;95.80
43999;DHT22;51319;52.162;5.302;2022-09-09T05:00:20;13.90;95.80
43999;DHT22;51319;52.162;5.302;2022-09-09T05:02:46;13.90;96.00
43999;DHT22;51319;52.162;5.302;2022-09-09T05:05:13;13.90;96.00
43999;DHT22;51319;52.162;5.302;2022-09-09T05:07:39;13.90;96.10
43999;DHT22;51319;52.162;5.302;2022-09-09T05:10:06;13.90;96.10
43999;DHT22;51319;52.162;5.302;2022-09-09T05:12:32;13.90;96.10
43999;DHT22;51319;52.162;5.302;2022-09-09T05:14:58;13.90;96.20
43999;DHT22;51319;52.162;5.302;2022-09-09T05:17:24;13.90;96.10
43999;DHT22;51319;52.162;5.302;2022-09-09T05:19:50;13.80;96.10
43999;DHT22;51319;52.162;5.302;2022-09-09T05:22:20;13.80;96.10
43999;DHT22;51319;52.162;5.302;2022-09-09T05:24:47;13.80;96.10
43999;DHT22;51319;52.162;5.302;2022-09-09T05:27:14;13.80;96.20
43999;DHT22;51319;52.162;5.302;2022-09-09T05:29:40;13.80;96.20
43999;DHT22;51319;52.162;5.302;2022-09-09T05:32:09;13.80;96.30
43999;DHT22;51319;52.162;5.302;2022-09-09T05:34:41;13.80;96.30
43999;DHT22;51319;52.162;5.302;2022-09-09T05:37:07;13.80;96.40
43999;DHT22;51319;52.162;5.302;2022-09-09T05:39:34;13.90;96.40
43999;DHT22;51319;52.162;5.302;2022-09-09T05:42:03;13.90;96.50
43999;DHT22;51319;52.162;5.302;2022-09-09T05:44:31;14.00;96.40
43999;DHT22;51319;52.162;5.302;2022-09-09T05:46:57;14.00;96.30
43999;DHT22;51319;52.162;5.302;2022-09-09T05:49:23;14.00;96.30
43999;DHT22;51319;52.162;5.302;2022-09-09T05:51:50;14.00;96.40
43999;DHT22;51319;52.162;5.302;2022-09-09T05:54:17;14.00;96.40
43999;DHT22;51319;52.162;5.302;2022-09-09T05:56:43;14.00;96.40
43999;DHT22;51319;52.162;5.302;2022-09-09T05:59:09;14.10;96.50
43999;DHT22;51319;52.162;5.302;2022-09-09T06:01:36;14.20;96.60
43999;DHT22;51319;52.162;5.302;2022-09-09T06:04:06;14.30;96.60
43999;DHT22;51319;52.162;5.302;2022-09-09T06:06:35;14.30;96.50
43999;DHT22;51319;52.162;5.302;2022-09-09T06:09:03;14.40;96.50
43999;DHT22;51319;52.162;5.302;2022-09-09T06:11:32;14.50;96.50
43999;DHT22;51319;52.162;5.302;2022-09-09T06:14:00;14.60;96.40
43999;DHT22;51319;52.162;5.302;2022-09-09T06:16:27;14.70;96.40
43999;DHT22;51319;52.162;5.302;2022-09-09T06:18:55;14.80;96.30
43999;DHT22;51319;52.162;5.302;2022-09-09T06:21:23;15.00;96.40
43999;DHT22;51319;52.162;5.302;2022-09-09T06:23:49;15.40;96.20
43999;DHT22;51319;52.162;5.302;2022-09-09T06:26:19;15.30;95.30
43999;DHT22;51319;52.162;5.302;2022-09-09T06:28:47;15.20;94.90
43999;DHT22;51319;52.162;5.302;2022-09-09T06:31:16;15.20;94.90
43999;DHT22;51319;52.162;5.302;2022-09-09T06:33:43;15.40;95.30
43999;DHT22;51319;52.162;5.302;2022-09-09T06:36:12;16.20;95.50
43999;DHT22;51319;52.162;5.302;2022-09-09T06:38:39;17.00;94.30
43999;DHT22;51319;52.162;5.302;2022-09-09T06:41:06;18.10;92.90
43999;DHT22;51319;52.162;5.302;2022-09-09T06:43:32;18.60;90.50
43999;DHT22;51319;52.162;5.302;2022-09-09T06:46:08;18.20;89.70
43999;DHT22;51319;52.162;5.302;2022-09-09T06:48:36;17.70;90.00
43999;DHT22;51319;52.162;5.302;2022-09-09T06:51:05;17.50;90.70
43999;DHT22;51319;52.162;5.302;2022-09-09T06:53:33;17.30;90.60
43999;DHT22;51319;52.162;5.302;2022-09-09T06:56:24;17.30;90.80
43999;DHT22;51319;52.162;5.302;2022-09-09T06:58:51;17.40;90.90
43999;DHT22;51319;52.162;5.302;2022-09-09T07:01:20;17.70;90.90
43999;DHT22;51319;52.162;5.302;2022-09-09T07:03:49;18.00;90.50
43999;DHT22;51319;52.162;5.302;2022-09-09T07:06:25;18.20;90.00
43999;DHT22;51319;52.162;5.302;2022-09-09T07:08:56;18.40;89.50
43999;DHT22;51319;52.162;5.302;2022-09-09T07:11:26;18.50;89.00
43999;DHT22;51319;52.162;5.302;2022-09-09T07:13:57;18.60;88.20
43999;DHT22;51319;52.162;5.302;2022-09-09T07:16:24;18.70;87.80
43999;DHT22;51319;52.162;5.302;2022-09-09T07:18:51;18.50;87.30
43999;DHT22;51319;52.162;5.302;2022-09-09T07:21:18;18.40;87.00
43999;DHT22;51319;52.162;5.302;2022-09-09T07:23:45;18.30;87.50
43999;DHT22;51319;52.162;5.302;2022-09-09T07:26:17;18.20;87.50
43999;DHT22;51319;52.162;5.302;2022-09-09T07:28:45;18.30;88.00
43999;DHT22;51319;52.162;5.302;2022-09-09T07:31:34;18.40;88.00
43999;DHT22;51319;52.162;5.302;2022-09-09T07:34:02;18.60;87.10
43999;DHT22;51319;52.162;5.302;2022-09-09T07:36:31;18.60;86.80
43999;DHT22;51319;52.162;5.302;2022-09-09T07:39:05;18.70;86.30
43999;DHT22;51319;52.162;5.302;2022-09-09T07:41:36;18.90;86.30
43999;DHT22;51319;52.162;5.302;2022-09-09T07:44:07;19.10;85.60
43999;DHT22;51319;52.162;5.302;2022-09-09T07:46:34;19.50;84.60
43999;DHT22;51319;52.162;5.302;2022-09-09T07:49:00;19.70;82.80
43999;DHT22;51319;52.162;5.302;2022-09-09T07:51:29;19.50;82.00
43999;DHT22;51319;52.162;5.302;2022-09-09T07:53:58;19.30;82.30
43999;DHT22;51319;52.162;5.302;2022-09-09T07:56:25;19.20;82.10
43999;DHT22;51319;52.162;5.302;2022-09-09T07:58:53;18.90;82.30
43999;DHT22;51319;52.162;5.302;2022-09-09T08:01:24;18.70;83.40
43999;DHT22;51319;52.162;5.302;2022-09-09T08:04:02;18.50;84.10
43999;DHT22;51319;52.162;5.302;2022-09-09T08:06:31;18.60;85.00
43999;DHT22;51319;52.162;5.302;2022-09-09T08:08:59;18.60;85.00
43999;DHT22;51319;52.162;5.302;2022-09-09T08:11:27;18.70;85.20
43999;DHT22;51319;52.162;5.302;2022-09-09T08:13:54;18.70;85.20
43999;DHT22;51319;52.162;5.302;2022-09-09T08:16:29;18.60;85.00
43999;DHT22;51319;52.162;5.302;2022-09-09T08:18:56;18.60;85.00
43999;DHT22;51319;52.162;5.302;2022-09-09T08:21:25;18.50;84.80
43999;DHT22;51319;52.162;5.302;2022-09-09T08:23:56;18.40;84.80
43999;DHT22;51319;52.162;5.302;2022-09-09T08:26:40;18.40;85.10
43999;DHT22;51319;52.162;5.302;2022-09-09T08:29:11;18.30;85.60
43999;DHT22;51319;52.162;5.302;2022-09-09T08:31:39;18.30;85.80
43999;DHT22;51319;52.162;5.302;2022-09-09T08:34:07;18.30;85.50
43999;DHT22;51319;52.162;5.302;2022-09-09T08:36:35;18.30;85.40
43999;DHT22;51319;52.162;5.302;2022-09-09T08:39:04;18.30;85.10
43999;DHT22;51319;52.162;5.302;2022-09-09T08:50:32;18.40;85.30
43999;DHT22;51319;52.162;5.302;2022-09-09T08:55:51;18.80;83.70
43999;DHT22;51319;52.162;5.302;2022-09-09T08:58:20;18.90;83.80
43999;DHT22;51319;52.162;5.302;2022-09-09T09:04:06;19.10;82.10
43999;DHT22;51319;52.162;5.302;2022-09-09T09:09:30;18.90;82.20
43999;DHT22;51319;52.162;5.302;2022-09-09T09:12:06;18.80;82.60
43999;DHT22;51319;52.162;5.302;2022-09-09T09:14:35;18.70;82.70
43999;DHT22;51319;52.162;5.302;2022-09-09T09:17:21;18.70;82.80
43999;DHT22;51319;52.162;5.302;2022-09-09T09:19:49;18.60;83.00
43999;DHT22;51319;52.162;5.302;2022-09-09T09:22:40;18.70;83.00
43999;DHT22;51319;52.162;5.302;2022-09-09T09:25:27;18.70;82.70
43999;DHT22;51319;52.162;5.302;2022-09-09T09:28:06;18.60;82.50
43999;DHT22;51319;52.162;5.302;2022-09-09T09:30:42;18.60;82.70
43999;DHT22;51319;52.162;5.302;2022-09-09T09:33:30;18.60;83.00
43999;DHT22;51319;52.162;5.302;2022-09-09T09:35:58;18.60;82.90
43999;DHT22;51319;52.162;5.302;2022-09-09T09:38:27;18.60;82.80
43999;DHT22;51319;52.162;5.302;2022-09-09T09:41:14;18.60;83.10
43999;DHT22;51319;52.162;5.302;2022-09-09T09:43:41;18.60;83.10
43999;DHT22;51319;52.162;5.302;2022-09-09T09:46:20;18.60;83.00
43999;DHT22;51319;52.162;5.302;2022-09-09T09:49:03;18.60;82.50
43999;DHT22;51319;52.162;5.302;2022-09-09T09:51:32;18.50;82.60
43999;DHT22;51319;52.162;5.302;2022-09-09T09:54:22;18.60;83.00
43999;DHT22;51319;52.162;5.302;2022-09-09T09:56:53;18.60;83.10
43999;DHT22;51319;52.162;5.302;2022-09-09T10:02:20;18.50;84.20
43999;DHT22;51319;52.162;5.302;2022-09-09T10:04:47;18.40;85.70
43999;DHT22;51319;52.162;5.302;2022-09-09T10:07:21;18.30;86.40
43999;DHT22;51319;52.162;5.302;2022-09-09T10:09:53;18.20;87.80
43999;DHT22;51319;52.162;5.302;2022-09-09T10:15:21;18.20;88.50
43999;DHT22;51319;52.162;5.302;2022-09-09T10:18:24;18.20;88.50
43999;DHT22;51319;52.162;5.302;2022-09-09T10:26:50;18.30;89.60
43999;DHT22;51319;52.162;5.302;2022-09-09T10:29:33;18.30;89.30
43999;DHT22;51319;52.162;5.302;2022-09-09T10:35:09;18.50;88.90
43999;DHT22;51319;52.162;5.302;2022-09-09T10:46:12;18.70;90.30
43999;DHT22;51319;52.162;5.302;2022-09-09T11:00:05;21.90;77.70
43999;DHT22;51319;52.162;5.302;2022-09-09T11:02:34;21.70;77.70
43999;DHT22;51319;52.162;5.302;2022-09-09T11:05:04;21.50;77.50
43999;DHT22;51319;52.162;5.302;2022-09-09T11:12:48;23.70;74.10
43999;DHT22;51319;52.162;5.302;2022-09-09T11:15:20;24.40;70.10
43999;DHT22;51319;52.162;5.302;2022-09-09T11:17:52;24.10;67.90
43999;DHT22;51319;52.162;5.302;2022-09-09T11:20:21;23.60;68.90
43999;DHT22;51319;52.162;5.302;2022-09-09T11:23:01;23.40;69.40
43999;DHT22;51319;52.162;5.302;2022-09-09T11:25:34;23.00;68.50
43999;DHT22;51319;52.162;5.302;2022-09-09T11:28:25;22.60;70.60
43999;DHT22;51319;52.162;5.302;2022-09-09T11:33:47;22.70;70.70
43999;DHT22;51319;52.162;5.302;2022-09-09T11:38:52;22.50;71.40
43999;DHT22;51319;52.162;5.302;2022-09-09T11:41:21;22.20;72.20
43999;DHT22;51319;52.162;5.302;2022-09-09T11:43:52;22.20;72.20
43999;DHT22;51319;52.162;5.302;2022-09-09T11:46:21;22.50;72.50
43999;DHT22;51319;52.162;5.302;2022-09-09T11:49:00;22.90;69.10
43999;DHT22;51319;52.162;5.302;2022-09-09T11:51:28;23.00;68.40
43999;DHT22;51319;52.162;5.302;2022-09-09T11:54:01;22.90;68.90
43999;DHT22;51319;52.162;5.302;2022-09-09T11:59:05;21.80;71.90
43999;DHT22;51319;52.162;5.302;2022-09-09T12:01:41;21.10;74.20
43999;DHT22;51319;52.162;5.302;2022-09-09T12:04:13;20.70;76.20
43999;DHT22;51319;52.162;5.302;2022-09-09T12:07:20;20.50;77.40
43999;DHT22;51319;52.162;5.302;2022-09-09T12:10:02;20.30;79.10
43999;DHT22;51319;52.162;5.302;2022-09-09T12:12:38;20.10;80.20
43999;DHT22;51319;52.162;5.302;2022-09-09T12:17:44;20.20;81.10
43999;DHT22;51319;52.162;5.302;2022-09-09T12:20:18;20.20;80.90
43999;DHT22;51319;52.162;5.302;2022-09-09T12:28:51;20.00;82.30
43999;DHT22;51319;52.162;5.302;2022-09-09T12:31:24;19.60;83.50
43999;DHT22;51319;52.162;5.302;2022-09-09T12:33:52;19.10;84.90
43999;DHT22;51319;52.162;5.302;2022-09-09T12:36:29;18.80;86.60
43999;DHT22;51319;52.162;5.302;2022-09-09T12:38:59;18.70;88.40
43999;DHT22;51319;52.162;5.302;2022-09-09T12:41:36;18.70;89.30
43999;DHT22;51319;52.162;5.302;2022-09-09T12:44:08;18.80;89.60
43999;DHT22;51319;52.162;5.302;2022-09-09T12:46:38;18.80;89.70
43999;DHT22;51319;52.162;5.302;2022-09-09T12:51:50;19.10;90.00
43999;DHT22;51319;52.162;5.302;2022-09-09T12:54:16;19.40;89.40
43999;DHT22;51319;52.162;5.302;2022-09-09T12:56:46;19.50;88.80
43999;DHT22;51319;52.162;5.302;2022-09-09T12:59:41;19.40;88.10
43999;DHT22;51319;52.162;5.302;2022-09-09T13:02:21;19.40;88.90
43999;DHT22;51319;52.162;5.302;2022-09-09T13:04:48;20.00;88.80
43999;DHT22;51319;52.162;5.302;2022-09-09T13:07:20;20.70;87.00
43999;DHT22;51319;52.162;5.302;2022-09-09T13:09:48;21.00;84.10
43999;DHT22;51319;52.162;5.302;2022-09-09T13:12:19;21.00;82.30
43999;DHT22;51319;52.162;5.302;2022-09-09T13:14:49;20.90;81.90
43999;DHT22;51319;52.162;5.302;2022-09-09T13:17:24;20.80;81.20
43999;DHT22;51319;52.162;5.302;2022-09-09T13:19:52;20.70;81.50
43999;DHT22;51319;52.162;5.302;2022-09-09T13:22:35;20.60;81.40
43999;DHT22;51319;52.162;5.302;2022-09-09T13:25:06;20.50;81.40
43999;DHT22;51319;52.162;5.302;2022-09-09T13:27:35;20.60;81.00
43999;DHT22;51319;52.162;5.302;2022-09-09T13:30:22;20.60;80.80
43999;DHT22;51319;52.162;5.302;2022-09-09T13:35:51;20.40;80.80
43999;DHT22;51319;52.162;5.302;2022-09-09T13:38:19;20.20;81.60
43999;DHT22;51319;52.162;5.302;2022-09-09T13:41:00;20.00;82.60
43999;DHT22;51319;52.162;5.302;2022-09-09T13:43:50;19.90;84.70
43999;DHT22;51319;52.162;5.302;2022-09-09T13:46:38;19.90;84.40
43999;DHT22;51319;52.162;5.302;2022-09-09T13:51:43;20.20;84.10
43999;DHT22;51319;52.162;5.302;2022-09-09T13:54:15;20.20;84.40
43999;DHT22;51319;52.162;5.302;2022-09-09T13:56:42;20.20;84.80
43999;DHT22;51319;52.162;5.302;2022-09-09T13:59:17;20.20;84.70
43999;DHT22;51319;52.162;5.302;2022-09-09T14:01:45;20.10;83.30
43999;DHT22;51319;52.162;5.302;2022-09-09T14:04:12;20.00;83.70
43999;DHT22;51319;52.162;5.302;2022-09-09T14:06:39;20.00;84.80
43999;DHT22;51319;52.162;5.302;2022-09-09T14:09:06;20.00;84.70
43999;DHT22;51319;52.162;5.302;2022-09-09T14:11:33;19.90;84.00
43999;DHT22;51319;52.162;5.302;2022-09-09T14:13:59;19.90;83.90
43999;DHT22;51319;52.162;5.302;2022-09-09T14:16:27;19.90;84.10
43999;DHT22;51319;52.162;5.302;2022-09-09T14:18:53;19.90;84.80
43999;DHT22;51319;52.162;5.302;2022-09-09T14:21:23;19.80;85.00
43999;DHT22;51319;52.162;5.302;2022-09-09T14:23:49;19.70;85.60
43999;DHT22;51319;52.162;5.302;2022-09-09T14:26:15;19.70;86.40
43999;DHT22;51319;52.162;5.302;2022-09-09T14:28:42;19.70;86.60
43999;DHT22;51319;52.162;5.302;2022-09-09T14:31:21;19.70;86.70
43999;DHT22;51319;52.162;5.302;2022-09-09T14:33:47;19.60;87.10
43999;DHT22;51319;52.162;5.302;2022-09-09T14:36:14;19.50;87.50
43999;DHT22;51319;52.162;5.302;2022-09-09T14:38:40;19.40;87.90
43999;DHT22;51319;52.162;5.302;2022-09-09T14:41:13;19.20;88.50
43999;DHT22;51319;52.162;5.302;2022-09-09T14:43:43;19.00;89.50
43999;DHT22;51319;52.162;5.302;2022-09-09T14:46:12;18.90;90.30
43999;DHT22;51319;52.162;5.302;2022-09-09T14:48:38;18.70;90.80
43999;DHT22;51319;52.162;5.302;2022-09-09T14:51:10;18.70;91.10
43999;DHT22;51319;52.162;5.302;2022-09-09T14:53:39;18.70;91.30
43999;DHT22;51319;52.162;5.302;2022-09-09T14:56:14;18.90;91.40
43999;DHT22;51319;52.162;5.302;2022-09-09T14:58:42;19.10;91.50
43999;DHT22;51319;52.162;5.302;2022-09-09T15:01:12;19.40;91.20
43999;DHT22;51319;52.162;5.302;2022-09-09T15:03:40;19.60;91.10
43999;DHT22;51319;52.162;5.302;2022-09-09T15:06:09;19.80;91.10
43999;DHT22;51319;52.162;5.302;2022-09-09T15:08:41;19.90;90.70
43999;DHT22;51319;52.162;5.302;2022-09-09T15:11:09;20.00;90.30
43999;DHT22;51319;52.162;5.302;2022-09-09T15:13:37;20.10;90.30
43999;DHT22;51319;52.162;5.302;2022-09-09T15:16:05;20.10;89.50
43999;DHT22;51319;52.162;5.302;2022-09-09T15:18:32;20.00;89.20
43999;DHT22;51319;52.162;5.302;2022-09-09T15:21:00;19.90;89.10
43999;DHT22;51319;52.162;5.302;2022-09-09T15:23:31;19.90;88.90
43999;DHT22;51319;52.162;5.302;2022-09-09T15:25:58;19.80;88.60
43999;DHT22;51319;52.162;5.302;2022-09-09T15:28:24;19.70;88.60
43999;DHT22;51319;52.162;5.302;2022-09-09T15:30:52;19.60;88.40
43999;DHT22;51319;52.162;5.302;2022-09-09T15:33:20;19.50;88.60
43999;DHT22;51319;52.162;5.302;2022-09-09T15:35:46;19.40;88.60
43999;DHT22;51319;52.162;5.302;2022-09-09T15:38:13;19.30;88.80
43999;DHT22;51319;52.162;5.302;2022-09-09T15:40:41;19.20;88.90
43999;DHT22;51319;52.162;5.302;2022-09-09T15:43:07;19.20;88.90
43999;DHT22;51319;52.162;5.302;2022-09-09T15:45:35;19.10;88.80
43999;DHT22;51319;52.162;5.302;2022-09-09T15:48:02;19.00;88.50
43999;DHT22;51319;52.162;5.302;2022-09-09T15:50:29;19.00;88.30
43999;DHT22;51319;52.162;5.302;2022-09-09T15:52:57;18.90;88.10
43999;DHT22;51319;52.162;5.302;2022-09-09T15:55:24;18.90;88.00
43999;DHT22;51319;52.162;5.302;2022-09-09T15:57:52;18.90;88.40
43999;DHT22;51319;52.162;5.302;2022-09-09T16:00:19;18.80;88.70
43999;DHT22;51319;52.162;5.302;2022-09-09T16:02:49;18.90;89.30
43999;DHT22;51319;52.162;5.302;2022-09-09T16:05:15;18.90;89.20
43999;DHT22;51319;52.162;5.302;2022-09-09T16:07:42;19.00;89.00
43999;DHT22;51319;52.162;5.302;2022-09-09T16:10:09;19.00;88.80
43999;DHT22;51319;52.162;5.302;2022-09-09T16:12:36;19.10;88.60
43999;DHT22;51319;52.162;5.302;2022-09-09T16:15:03;19.20;88.70
43999;DHT22;51319;52.162;5.302;2022-09-09T16:17:29;19.30;88.80
43999;DHT22;51319;52.162;5.302;2022-09-09T16:19:55;19.40;88.30
43999;DHT22;51319;52.162;5.302;2022-09-09T16:22:23;19.40;87.40
43999;DHT22;51319;52.162;5.302;2022-09-09T16:24:50;19.40;86.50
43999;DHT22;51319;52.162;5.302;2022-09-09T16:27:16;19.30;85.80
43999;DHT22;51319;52.162;5.302;2022-09-09T16:29:42;19.30;85.90
43999;DHT22;51319;52.162;5.302;2022-09-09T16:32:08;19.20;85.70
43999;DHT22;51319;52.162;5.302;2022-09-09T16:34:36;19.10;85.70
43999;DHT22;51319;52.162;5.302;2022-09-09T16:37:02;19.00;85.40
43999;DHT22;51319;52.162;5.302;2022-09-09T16:39:28;18.90;85.80
43999;DHT22;51319;52.162;5.302;2022-09-09T16:41:54;18.90;86.20
43999;DHT22;51319;52.162;5.302;2022-09-09T16:44:20;18.80;86.60
43999;DHT22;51319;52.162;5.302;2022-09-09T16:46:48;18.70;86.80
43999;DHT22;51319;52.162;5.302;2022-09-09T16:49:15;18.80;87.10
43999;DHT22;51319;52.162;5.302;2022-09-09T16:51:47;18.70;87.20
43999;DHT22;51319;52.162;5.302;2022-09-09T16:54:15;18.70;87.40
43999;DHT22;51319;52.162;5.302;2022-09-09T16:56:45;18.70;87.30
43999;DHT22;51319;52.162;5.302;2022-09-09T16:59:21;18.80;87.50
43999;DHT22;51319;52.162;5.302;2022-09-09T17:01:50;18.80;87.70
43999;DHT22;51319;52.162;5.302;2022-09-09T17:04:19;18.70;87.70
43999;DHT22;51319;52.162;5.302;2022-09-09T17:06:47;18.60;87.70
43999;DHT22;51319;52.162;5.302;2022-09-09T17:09:15;18.60;88.00
43999;DHT22;51319;52.162;5.302;2022-09-09T17:11:41;18.50;88.30
43999;DHT22;51319;52.162;5.302;2022-09-09T17:14:10;18.40;88.30
43999;DHT22;51319;52.162;5.302;2022-09-09T17:16:37;18.40;88.80
43999;DHT22;51319;52.162;5.302;2022-09-09T17:19:05;18.40;89.10
43999;DHT22;51319;52.162;5.302;2022-09-09T17:21:34;18.40;89.40
43999;DHT22;51319;52.162;5.302;2022-09-09T17:24:00;18.50;89.40
43999;DHT22;51319;52.162;5.302;2022-09-09T17:26:29;18.50;89.50
43999;DHT22;51319;52.162;5.302;2022-09-09T17:28:56;18.50;89.70
43999;DHT22;51319;52.162;5.302;2022-09-09T17:31:26;18.50;89.70
43999;DHT22;51319;52.162;5.302;2022-09-09T17:33:56;18.50;89.50
43999;DHT22;51319;52.162;5.302;2022-09-09T17:36:25;18.50;89.50
43999;DHT22;51319;52.162;5.302;2022-09-09T17:38:52;18.50;89.70